Time;durP1;ratioP1;P1;durP2;ratioP2;P2;SDS_P1;SDS_P2;PMS_P1;PMS_P2;Temp;Humidity;BMP_temperature;BMP_pressure;BME280_temperature;BME280_humidity;BME280_pressure;Samples;Min_cycle;Max_cycle;Signal;HPM_P1;HPM_P2
2021/07/13 00:02:47;;;;;;;6.10;4.45;;;17.10;99.90;;;16.98;100.00;99999.31;3542895;39;101673;-85
2021/07/13 00:06:02;;;;;;;5.90;4.00;;;17.10;99.90;;;16.98;100.00;100002.03;3538964;39;102075;-85
2021/07/13 00:09:15;;;;;;;6.22;4.45;;;17.10;99.90;;;16.97;100.00;100011.16;3542707;39;102510;-82
2021/07/13 00:12:28;;;;;;;6.07;4.70;;;17.00;99.90;;;16.97;100.00;100016.56;3540377;39;100316;-82
2021/07/13 00:15:43;;;;;;;6.60;4.97;;;17.00;99.90;;;16.71;100.00;100011.13;3541328;39;101563;-85
2021/07/13 00:18:55;;;;;;;6.85;4.47;;;17.00;99.90;;;16.82;100.00;100018.63;3539848;39;101320;-85
2021/07/13 00:22:09;;;;;;;4.93;3.60;;;16.90;99.90;;;16.74;100.00;100014.25;3540920;39;100386;-82
2021/07/13 00:25:21;;;;;;;5.65;4.10;;;16.90;99.90;;;16.76;100.00;100019.44;3539876;39;100182;-83
2021/07/13 00:28:34;;;;;;;4.68;4.15;;;16.80;99.90;;;16.83;100.00;100017.59;3547453;39;103201;-85
2021/07/13 00:31:45;;;;;;;3.90;3.53;;;16.80;99.90;;;16.79;100.00;100017.19;3548742;39;100863;-85
2021/07/13 00:34:57;;;;;;;4.70;3.30;;;17.90;99.90;;;16.79;100.00;100013.66;3532019;39;100672;-85
2021/07/13 00:38:11;;;;;;;5.00;4.00;;;16.80;99.90;;;16.80;100.00;100012.59;3526543;39;99966;-84
2021/07/13 00:41:22;;;;;;;4.05;3.65;;;16.90;99.90;;;16.68;100.00;100003.44;3532826;39;100774;-82
2021/07/13 00:44:34;;;;;;;4.53;3.78;;;16.80;99.90;;;16.71;100.00;99992.19;3536618;39;101503;-82
2021/07/13 00:47:47;;;;;;;7.28;4.93;;;16.80;99.90;;;16.66;100.00;99998.25;3539069;39;100441;-81
2021/07/13 00:50:59;;;;;;;4.60;3.45;;;16.80;99.90;;;16.61;100.00;99997.13;3535938;39;100068;-81
2021/07/13 00:54:12;;;;;;;4.85;4.18;;;16.70;99.90;;;16.48;100.00;100000.63;3538441;39;101141;-81
2021/07/13 00:57:26;;;;;;;5.55;4.40;;;16.70;99.90;;;16.50;100.00;99995.88;3537224;39;103077;-82
2021/07/13 01:00:39;;;;;;;5.57;4.13;;;15.70;99.90;;;16.31;100.00;99994.78;3539283;39;100719;-81
2021/07/13 01:03:51;;;;;;;5.63;3.88;;;16.70;99.90;;;16.34;100.00;100001.63;3535891;39;100007;-82
2021/07/13 01:07:08;;;;;;;5.93;4.30;;;16.60;99.90;;;16.23;100.00;99994.09;3530051;39;103278;-84
2021/07/13 01:10:35;;;;;;;5.18;4.40;;;16.50;99.90;;;16.27;100.00;99996.22;3542873;39;101338;-82
2021/07/13 01:13:59;;;;;;;6.05;3.97;;;16.50;99.90;;;16.23;100.00;99994.09;3539451;39;101210;-82
2021/07/13 01:17:21;;;;;;;5.55;4.75;;;15.30;99.90;;;16.14;100.00;99993.47;3539647;39;100381;-80
2021/07/13 01:20:55;;;;;;;7.78;4.70;;;16.30;99.90;;;16.20;100.00;99998.03;3549875;39;101950;-81
2021/07/13 01:24:19;;;;;;;6.45;5.28;;;16.30;99.90;;;16.00;100.00;99997.97;3536832;39;100952;-81
2021/07/13 01:27:57;;;;;;;4.10;3.70;;;16.20;99.90;;;16.06;100.00;100002.56;3516800;39;102044;-81
2021/07/13 01:31:19;;;;;;;6.25;4.20;;;16.10;99.90;;;15.98;100.00;100008.13;3524075;39;100029;-83
2021/07/13 01:34:37;;;;;;;5.78;4.30;;;16.10;99.90;;;15.93;100.00;100018.69;3535500;39;100778;-81
2021/07/13 01:37:50;;;;;;;6.38;4.40;;;16.00;99.90;;;15.85;100.00;100012.59;3538258;39;101232;-83
2021/07/13 01:41:06;;;;;;;5.57;4.40;;;16.00;99.90;;;15.85;100.00;100004.50;3536678;39;100547;-81
2021/07/13 01:44:21;;;;;;;4.90;3.97;;;16.00;99.90;;;15.90;100.00;100007.47;3532987;39;100060;-80
2021/07/13 01:47:35;;;;;;;7.47;4.00;;;15.90;99.90;;;15.86;100.00;100001.63;3537547;39;101231;-84
2021/07/13 01:50:49;;;;;;;5.47;4.72;;;16.40;99.90;;;15.84;100.00;100008.25;3536657;39;101028;-81
2021/07/13 01:54:02;;;;;;;4.45;3.85;;;15.90;99.90;;;15.82;100.00;100009.28;3532769;39;101138;-82
2021/07/13 01:57:17;;;;;;;5.90;4.32;;;15.90;99.90;;;15.85;100.00;99996.41;3534954;39;99923;-82
2021/07/13 02:00:30;;;;;;;4.75;3.85;;;15.80;99.90;;;15.79;100.00;99995.38;3530025;39;101474;-85
2021/07/13 02:03:44;;;;;;;7.05;4.55;;;16.40;99.90;;;15.82;100.00;99997.66;3542587;39;101122;-81
2021/07/13 02:06:56;;;;;;;4.93;4.18;;;15.80;99.90;;;15.87;100.00;99994.34;3539783;39;100515;-83
2021/07/13 02:10:11;;;;;;;5.55;4.47;;;16.00;99.90;;;15.91;100.00;99996.47;3527505;39;100010;-82
2021/07/13 02:13:24;;;;;;;5.30;4.13;;;15.80;99.90;;;15.86;100.00;99995.38;3524253;39;103225;-85
2021/07/13 02:16:36;;;;;;;4.82;4.18;;;15.80;99.90;;;15.85;100.00;99978.38;3536097;39;102618;-81
2021/07/13 02:19:49;;;;;;;4.50;3.60;;;15.70;99.90;;;15.73;100.00;99977.25;3540606;39;100740;-82
2021/07/13 02:23:01;;;;;;;7.13;4.80;;;15.90;99.90;;;15.66;100.00;99984.50;3548959;39;99838;-86
2021/07/13 02:26:18;;;;;;;5.53;4.93;;;15.90;99.90;;;15.58;100.00;99984.66;3524654;39;102088;-83
2021/07/13 02:29:38;;;;;;;8.40;5.13;;;15.60;99.90;;;15.50;100.00;99990.16;3516976;39;103186;-81
2021/07/13 02:32:56;;;;;;;7.45;5.18;;;15.50;99.90;;;15.49;100.00;99988.50;3524310;39;102395;-81
2021/07/13 02:36:18;;;;;;;5.65;4.38;;;15.60;99.90;;;15.36;100.00;99986.53;3534882;39;101076;-83
2021/07/13 02:39:33;;;;;;;5.70;4.63;;;15.50;99.90;;;15.24;100.00;99993.50;3537169;39;100407;-84
2021/07/13 02:42:46;;;;;;;4.57;4.03;;;15.40;99.90;;;15.37;100.00;99994.44;3541774;39;100951;-84
2021/07/13 02:45:59;;;;;;;6.83;4.67;;;15.30;99.90;;;15.21;100.00;99994.72;3537101;39;100675;-83
2021/07/13 02:49:11;;;;;;;9.43;4.90;;;14.40;99.90;;;15.23;100.00;99997.22;3536817;39;99838;-82
2021/07/13 02:52:27;;;;;;;7.77;4.37;;;15.20;99.90;;;15.19;100.00;99988.72;3530915;39;103118;-85
2021/07/13 02:55:44;;;;;;;6.27;4.60;;;15.20;99.90;;;15.26;100.00;99992.28;3540647;39;101033;-81
2021/07/13 02:58:58;;;;;;;6.03;4.68;;;15.20;99.90;;;15.33;100.00;99981.56;3532158;39;100750;-81
2021/07/13 03:02:12;;;;;;;6.70;4.60;;;15.20;99.90;;;15.31;100.00;99976.34;3538276;39;100222;-84
2021/07/13 03:05:26;;;;;;;4.83;4.07;;;15.30;99.90;;;15.37;100.00;99977.41;3531473;39;102640;-84
2021/07/13 03:08:41;;;;;;;6.43;5.32;;;15.10;99.90;;;15.34;100.00;99977.81;3538751;39;103264;-82
2021/07/13 03:11:54;;;;;;;4.38;3.97;;;15.10;99.90;;;15.46;100.00;99977.06;3548425;39;101584;-81
2021/07/13 03:15:07;;;;;;;5.25;4.15;;;15.10;99.90;;;15.58;100.00;99971.19;3552438;39;100945;-86
2021/07/13 03:18:21;;;;;;;6.40;4.77;;;15.20;99.90;;;15.54;100.00;99977.97;3542747;39;103029;-81
2021/07/13 03:21:34;;;;;;;6.83;4.97;;;15.20;99.90;;;15.42;100.00;99970.41;3521447;39;103525;-83
2021/07/13 03:24:49;;;;;;;5.27;4.13;;;16.00;99.90;;;15.39;100.00;99965.41;3524579;39;102998;-84
2021/07/13 03:28:01;;;;;;;5.10;4.13;;;15.30;99.90;;;15.42;100.00;99970.41;3534122;39;99920;-86
2021/07/13 03:31:23;;;;;;;6.13;4.40;;;15.20;99.90;;;15.48;100.00;99973.34;3540397;39;103440;-85
2021/07/13 03:34:35;;;;;;;5.57;4.57;;;15.10;99.90;;;15.45;100.00;99967.31;3531236;39;103149;-80
2021/07/13 03:37:48;;;;;;;6.25;4.50;;;15.10;99.90;;;15.48;100.00;99963.38;3537177;39;100550;-85
2021/07/13 03:41:02;;;;;;;6.50;4.93;;;15.20;99.90;;;15.60;100.00;99961.84;3522700;39;101280;-84
2021/07/13 03:44:14;;;;;;;6.20;4.73;;;15.20;99.90;;;15.84;100.00;99963.22;3541402;39;101487;-84
2021/07/13 03:47:29;;;;;;;5.83;4.97;;;15.20;99.90;;;15.98;100.00;99967.63;3542413;39;103170;-84
2021/07/13 03:50:43;;;;;;;6.77;5.10;;;15.20;99.90;;;15.85;100.00;99964.88;3542631;39;102332;-84
2021/07/13 03:53:55;;;;;;;12.23;4.32;;;15.30;99.90;;;15.82;100.00;99962.59;3533377;39;100429;-81
2021/07/13 03:57:09;;;;;;;4.68;4.20;;;15.30;99.90;;;15.96;100.00;99955.38;3539567;39;103690;-82
2021/07/13 04:00:22;;;;;;;8.83;4.17;;;15.30;99.90;;;16.39;100.00;99954.09;3532649;39;101130;-81
2021/07/13 04:03:34;;;;;;;4.25;3.85;;;15.40;99.90;;;16.70;100.00;99945.44;3543913;39;101113;-82
2021/07/13 04:06:46;;;;;;;5.57;4.20;;;15.50;99.90;;;16.87;100.00;99933.19;3544962;39;100385;-85
2021/07/13 04:09:59;;;;;;;8.02;4.68;;;15.60;99.90;;;17.04;100.00;99928.22;3539217;39;101551;-85
2021/07/13 04:13:13;;;;;;;4.53;3.70;;;15.70;99.90;;;17.31;100.00;99917.38;3542161;39;100255;-85
2021/07/13 04:16:25;;;;;;;4.75;3.63;;;15.80;99.90;;;17.42;100.00;99903.22;3532204;39;100850;-81
2021/07/13 04:19:36;;;;;;;6.28;4.50;;;16.00;99.90;;;17.51;100.00;99891.94;3537435;39;100089;-81
2021/07/13 04:22:49;;;;;;;7.78;3.85;;;16.10;99.90;;;17.65;100.00;99873.00;3519251;39;103130;-84
2021/07/13 04:26:01;;;;;;;3.88;3.33;;;16.30;99.90;;;17.64;100.00;99865.94;3545437;39;100763;-85
2021/07/13 04:29:14;;;;;;;3.92;3.22;;;16.40;99.90;;;17.94;100.00;99848.91;3541377;39;102663;-81
2021/07/13 04:32:26;;;;;;;5.35;3.85;;;16.50;99.90;;;17.90;100.00;99846.88;3535039;39;100083;-81
2021/07/13 04:35:39;;;;;;;4.10;3.42;;;16.70;99.90;;;17.99;100.00;99833.91;3539728;39;100375;-83
2021/07/13 04:38:51;;;;;;;4.32;3.08;;;16.90;99.90;;;18.06;100.00;99821.97;3537036;39;103448;-82
2021/07/13 04:42:03;;;;;;;4.13;2.80;;;17.10;99.90;;;18.29;100.00;99816.00;3538438;39;100439;-84
2021/07/13 04:45:17;;;;;;;3.72;2.90;;;17.20;99.90;;;18.36;100.00;99815.94;3544562;39;100315;-85
2021/07/13 04:48:29;;;;;;;2.42;2.22;;;18.50;99.90;;;18.75;100.00;99804.81;3531238;39;101289;-81
2021/07/13 04:51:41;;;;;;;3.97;3.20;;;17.50;99.90;;;18.86;100.00;99787.81;3540461;39;101530;-82
2021/07/13 04:54:52;;;;;;;3.55;2.53;;;17.70;99.90;;;19.26;100.00;99779.25;3542071;39;100078;-83
2021/07/13 04:58:04;;;;;;;3.17;2.88;;;18.30;99.90;;;18.73;100.00;99778.97;3541662;39;100392;-81
2021/07/13 05:01:17;;;;;;;3.67;2.47;;;18.00;99.90;;;19.17;100.00;99778.69;3551513;39;100079;-85
2021/07/13 05:04:28;;;;;;;2.65;2.20;;;19.10;99.90;;;19.35;100.00;99775.16;3532531;39;100007;-81
2021/07/13 05:07:40;;;;;;;2.55;2.35;;;18.50;99.90;;;19.41;100.00;99763.38;3571261;22;104496;-85
2021/07/13 05:10:52;;;;;;;2.47;2.28;;;19.30;99.90;;;19.69;100.00;99757.41;3519026;39;100255;-82
2021/07/13 05:14:04;;;;;;;3.10;2.25;;;18.80;99.90;;;19.90;100.00;99759.63;3537899;39;100968;-81
2021/07/13 05:17:17;;;;;;;4.20;2.58;;;19.00;99.90;;;19.75;100.00;99753.81;3523738;39;102930;-84
2021/07/13 05:20:30;;;;;;;2.92;2.10;;;19.20;99.90;;;19.89;100.00;99751.72;3533911;39;101359;-85
2021/07/13 05:23:42;;;;;;;2.38;2.13;;;19.40;99.90;;;20.14;100.00;99755.09;3530798;39;100039;-82
2021/07/13 05:26:54;;;;;;;5.88;2.47;;;19.60;99.90;;;20.03;100.00;99751.25;3534095;39;101007;-81
2021/07/13 05:30:06;;;;;;;3.10;2.17;;;19.80;99.90;;;20.41;100.00;99744.63;3521395;39;100505;-81
2021/07/13 05:33:19;;;;;;;2.30;2.10;;;19.90;99.90;;;20.05;100.00;99742.88;3526714;39;102379;-83
2021/07/13 05:36:32;;;;;;;2.63;2.17;;;20.10;99.90;;;20.00;100.00;99746.31;3526272;39;100073;-85
2021/07/13 05:39:44;;;;;;;2.10;1.92;;;20.20;99.90;;;20.92;100.00;99752.06;3514616;39;102214;-80
2021/07/13 05:42:56;;;;;;;1.63;1.42;;;20.40;99.90;;;20.72;100.00;99738.84;3536515;39;101309;-81
2021/07/13 05:46:09;;;;;;;2.70;1.70;;;20.60;99.90;;;20.86;100.00;99716.84;3525093;39;102440;-82
2021/07/13 05:49:22;;;;;;;3.05;1.30;;;20.80;99.90;;;21.14;100.00;99728.59;3535455;39;101148;-82
2021/07/13 05:52:34;;;;;;;4.45;1.85;;;21.00;99.90;;;21.22;100.00;99732.91;3538424;39;101520;-84
2021/07/13 05:55:45;;;;;;;1.95;1.67;;;21.20;99.90;;;21.92;100.00;99718.97;3537667;39;100005;-86
2021/07/13 05:58:57;;;;;;;1.92;1.73;;;21.40;99.90;;;21.76;100.00;99717.06;3536457;39;100449;-81
2021/07/13 06:02:09;;;;;;;1.45;1.35;;;22.20;99.90;;;22.41;100.00;99711.91;3534245;39;100359;-82
2021/07/13 06:05:23;;;;;;;2.13;1.60;;;21.80;99.90;;;22.27;100.00;99702.41;3531119;39;103060;-85
2021/07/13 06:08:35;;;;;;;1.35;1.23;;;22.20;99.90;;;22.49;100.00;99695.16;3536168;39;102707;-84
2021/07/13 06:11:46;;;;;;;1.17;1.08;;;22.70;99.90;;;22.70;100.00;99698.97;3532080;39;100689;-85
2021/07/13 06:14:58;;;;;;;5.40;1.55;;;22.70;99.90;;;22.64;100.00;99696.41;3539640;39;100545;-85
2021/07/13 06:18:11;;;;;;;1.73;1.40;;;22.90;99.90;;;22.58;100.00;99692.81;3520306;39;103017;-83
2021/07/13 06:21:25;;;;;;;1.40;1.13;;;23.20;99.90;;;22.88;100.00;99687.78;3521493;39;103036;-82
2021/07/13 06:24:36;;;;;;;1.80;1.70;;;23.30;99.90;;;22.81;100.00;99678.97;3516045;39;102424;-82
2021/07/13 06:27:49;;;;;;;4.20;1.27;;;23.60;99.90;;;22.99;100.00;99677.03;3530299;39;102428;-84
2021/07/13 06:31:01;;;;;;;0.93;0.90;;;23.80;99.90;;;23.09;100.00;99679.88;3535878;39;101051;-82
2021/07/13 06:34:12;;;;;;;0.90;0.90;;;24.00;99.90;;;23.81;100.00;99680.41;3536468;39;101287;-82
2021/07/13 06:37:26;;;;;;;0.93;0.88;;;24.10;99.90;;;24.04;100.00;99675.69;3526265;39;102346;-82
2021/07/13 06:40:38;;;;;;;2.40;1.50;;;24.40;99.90;;;24.09;100.00;99675.72;3529512;39;100054;-81
2021/07/13 06:43:50;;;;;;;0.82;0.82;;;24.70;99.90;;;23.73;100.00;99678.16;3552140;39;100268;-85
2021/07/13 06:47:02;;;;;;;2.17;1.20;;;25.00;99.90;;;23.92;100.00;99676.69;3542012;39;100205;-81
2021/07/13 06:50:14;;;;;;;1.95;1.15;;;25.20;99.90;;;24.52;100.00;99671.94;3523462;39;101972;-81
2021/07/13 06:53:18;;;;;;;2.88;1.13;;;25.40;99.50;;;23.95;100.00;99661.69;3531951;39;100511;-80
2021/07/13 06:56:30;;;;;;;1.30;0.85;;;25.60;97.10;;;24.52;100.00;99664.56;3526654;39;102881;-80
2021/07/13 06:59:42;;;;;;;2.45;1.20;;;25.80;96.50;;;24.63;100.00;99658.06;3530166;39;103193;-83
2021/07/13 07:02:54;;;;;;;1.42;0.90;;;26.00;94.80;;;24.81;100.00;99654.06;3523488;39;101377;-84
2021/07/13 07:06:05;;;;;;;0.70;0.70;;;26.50;94.00;;;25.12;100.00;99646.00;3521049;39;100262;-83
2021/07/13 07:09:19;;;;;;;0.70;0.70;;;26.40;94.10;;;25.11;100.00;99652.56;3535931;39;101033;-85
2021/07/13 07:12:31;;;;;;;1.30;1.00;;;26.60;92.50;;;24.70;100.00;99642.25;3535983;39;101079;-85
2021/07/13 07:15:43;;;;;;;86.78;51.70;;;26.80;90.90;;;25.56;100.00;99649.94;3531000;39;100212;-84
2021/07/13 07:18:54;;;;;;;13.70;6.47;;;27.10;90.50;;;26.27;100.00;99641.75;3535864;39;100718;-82
2021/07/13 07:22:06;;;;;;;3.15;2.80;;;27.30;90.50;;;25.79;100.00;99643.16;3533085;39;101046;-83
2021/07/13 07:25:20;;;;;;;0.80;0.80;;;27.70;88.00;;;25.42;100.00;99643.34;3529947;39;101321;-85
2021/07/13 07:28:32;;;;;;;1.00;0.90;;;27.90;81.90;;;25.30;100.00;99646.34;3536122;39;100695;-85
2021/07/13 07:31:43;;;;;;;0.98;0.88;;;28.00;80.60;;;25.92;100.00;99647.25;3548967;39;99807;-85
2021/07/13 07:34:55;;;;;;;0.70;0.70;;;28.20;81.70;;;26.07;100.00;99652.75;3518222;39;101660;-82
2021/07/13 07:38:07;;;;;;;5.45;3.33;;;28.30;78.90;;;26.44;100.00;99644.22;3516866;39;103469;-84
2021/07/13 07:41:21;;;;;;;1.00;1.00;;;28.60;79.60;;;25.22;100.00;99643.31;3531680;39;101355;-82
2021/07/13 07:44:33;;;;;;;1.20;1.10;;;28.60;75.50;;;24.97;100.00;99641.31;3518581;39;100132;-85
2021/07/13 07:47:45;;;;;;;1.08;0.98;;;28.60;74.40;;;25.48;100.00;99644.16;3522068;39;102460;-83
2021/07/13 07:50:56;;;;;;;0.90;0.82;;;28.50;73.90;;;26.05;100.00;99635.75;3535138;39;100935;-83
2021/07/13 07:54:08;;;;;;;2.08;1.33;;;28.30;74.20;;;26.11;100.00;99638.19;3530694;39;100774;-82
2021/07/13 07:57:22;;;;;;;1.25;0.55;;;28.60;74.20;;;27.01;100.00;99624.56;3523756;39;99845;-85
2021/07/13 08:00:46;;;;;;;0.77;0.70;;;28.80;74.90;;;26.44;100.00;99625.03;3532457;39;100926;-82
2021/07/13 08:03:58;;;;;;;2.00;1.20;;;29.00;74.50;;;26.67;100.00;99629.91;3521957;39;103198;-81
2021/07/13 08:07:10;;;;;;;1.10;0.75;;;29.00;72.60;;;26.39;100.00;99627.78;3531989;39;100352;-85
2021/07/13 08:10:24;;;;;;;1.27;1.17;;;29.40;71.70;;;25.14;100.00;99630.13;3526170;39;100139;-84
2021/07/13 08:13:37;;;;;;;1.92;1.25;;;29.10;67.60;;;25.45;100.00;99626.38;3538714;39;101004;-85
2021/07/13 08:16:51;;;;;;;1.25;0.70;;;29.00;68.30;;;25.56;100.00;99630.78;3530278;39;103498;-84
2021/07/13 08:20:03;;;;;;;1.35;1.25;;;28.70;68.30;;;26.24;100.00;99627.75;3534460;39;99890;-84
2021/07/13 08:23:15;;;;;;;1.27;1.05;;;28.70;70.90;;;27.12;100.00;99615.16;3534674;39;99919;-83
2021/07/13 08:26:26;;;;;;;0.98;0.82;;;28.60;71.80;;;26.63;100.00;99606.84;3519234;39;103083;-83
2021/07/13 08:29:40;;;;;;;1.08;0.82;;;29.00;71.20;;;26.71;100.00;99600.78;3528891;39;101349;-82
2021/07/13 08:32:52;;;;;;;1.02;0.73;;;29.20;70.90;;;27.56;100.00;99603.41;3529165;39;100960;-84
2021/07/13 08:36:04;;;;;;;5.18;2.67;;;29.40;69.70;;;29.08;100.00;99589.97;3518128;39;100412;-84
2021/07/13 08:39:16;;;;;;;1.58;1.30;;;30.00;71.10;;;26.86;100.00;99596.31;3520162;39;101017;-84
2021/07/13 08:42:28;;;;;;;1.50;1.00;;;30.10;66.40;;;28.00;100.00;99581.28;3531444;39;100901;-84
2021/07/13 08:45:43;;;;;;;6.70;1.00;;;30.30;65.10;;;27.19;100.00;99584.66;3521486;39;102551;-84
2021/07/13 08:48:58;;;;;;;1.30;0.85;;;30.40;63.50;;;26.97;100.00;99584.22;3521323;39;100002;-84
2021/07/13 08:52:11;;;;;;;1.40;1.30;;;30.60;62.00;;;27.62;100.00;99583.00;3529654;39;101168;-84
2021/07/13 08:55:24;;;;;;;1.05;0.90;;;31.00;62.30;;;28.34;100.00;99572.97;3530355;39;101366;-85
2021/07/13 08:58:40;;;;;;;1.67;1.17;;;30.90;61.50;;;29.00;100.00;99569.44;3527959;39;100259;-85
2021/07/13 09:01:54;;;;;;;1.00;0.90;;;31.20;61.70;;;28.58;100.00;99570.22;3518282;39;100120;-83
2021/07/13 09:05:15;;;;;;;0.75;0.70;;;31.90;59.20;;;27.59;100.00;99564.31;3518561;39;100784;-82
2021/07/13 09:08:38;;;;;;;0.70;0.70;;;31.60;56.90;;;27.51;100.00;99562.19;3521117;39;103278;-82
2021/07/13 09:11:51;;;;;;;0.52;0.52;;;31.70;55.80;;;28.59;100.00;99561.69;3538639;39;101288;-83
2021/07/13 09:15:20;;;;;;;3.95;1.50;;;31.80;56.20;;;28.09;100.00;99560.28;3536534;39;99398;-83
2021/07/13 09:18:46;;;;;;;2.55;0.98;;;31.60;55.20;;;27.81;100.00;99561.97;3531358;39;102061;-84
2021/07/13 09:22:03;;;;;;;1.15;0.90;;;31.50;54.30;;;28.16;100.00;99548.97;3530943;39;101000;-81
2021/07/13 09:25:21;;;;;;;1.50;1.20;;;31.30;53.90;;;29.03;100.00;99557.00;3525867;39;100480;-82
2021/07/13 09:28:54;;;;;;;1.52;0.95;;;31.50;54.30;;;28.83;100.00;99550.66;3526916;39;101348;-84
2021/07/13 09:32:24;;;;;;;2.00;1.15;;;31.70;54.50;;;28.70;100.00;99556.03;3517923;39;101005;-82
2021/07/13 09:35:40;;;;;;;0.98;0.90;;;31.80;54.30;;;28.34;100.00;99552.91;3525066;39;102155;-81
2021/07/13 09:39:00;;;;;;;1.75;1.15;;;31.90;52.80;;;28.40;100.00;99549.81;3528483;39;102633;-81
2021/07/13 09:42:18;;;;;;;1.45;1.10;;;31.70;52.00;;;28.94;100.00;99551.34;3527036;39;100087;-82
2021/07/13 09:45:53;;;;;;;1.45;0.90;;;32.00;52.20;;;28.72;100.00;99557.38;3532639;39;101449;-82
2021/07/13 09:49:24;;;;;;;0.75;0.75;;;32.10;50.30;;;29.04;100.00;99547.63;3509328;39;101205;-83
2021/07/13 09:52:42;;;;;;;2.80;0.70;;;32.30;50.90;;;29.19;100.00;99545.47;3512358;39;101455;-84
2021/07/13 09:55:55;;;;;;;2.03;0.98;;;32.50;50.20;;;28.12;100.00;99536.88;3519122;39;100320;-84
2021/07/13 09:59:12;;;;;;;1.50;0.95;;;32.70;48.60;;;28.97;100.00;99545.25;3520999;39;102802;-82
2021/07/13 10:02:26;;;;;;;1.40;1.30;;;32.60;49.20;;;28.01;100.00;99541.69;3530668;39;101475;-83
2021/07/13 10:05:38;;;;;;;1.73;0.60;;;32.30;48.30;;;28.83;100.00;99550.66;3539489;39;100566;-83
2021/07/13 10:08:52;;;;;;;1.00;0.88;;;32.20;50.00;;;28.50;100.00;99535.94;3542486;39;99886;-81
2021/07/13 10:12:03;;;;;;;1.13;0.95;;;32.00;50.40;;;28.50;100.00;99538.69;3517396;39;103138;-84
2021/07/13 10:15:17;;;;;;;1.02;0.85;;;31.90;50.60;;;28.49;100.00;99538.97;3528181;39;101025;-83
2021/07/13 10:18:30;;;;;;;1.25;1.13;;;31.80;50.80;;;28.43;100.00;99537.41;3519898;39;102437;-82
2021/07/13 10:21:46;;;;;;;1.15;0.88;;;31.80;50.80;;;29.01;100.00;99538.03;3528141;39;100109;-83
2021/07/13 10:25:04;;;;;;;1.48;1.10;;;31.80;51.40;;;28.76;100.00;99543.84;3529437;39;103003;-83
2021/07/13 10:28:17;;;;;;;2.50;1.33;;;31.90;51.20;;;28.83;100.00;99544.34;3533359;39;101209;-81
2021/07/13 10:31:44;;;;;;;1.23;0.93;;;32.00;51.10;;;29.76;100.00;99537.97;3520058;39;102687;-84
2021/07/13 10:35:26;;;;;;;3.25;1.42;;;32.10;51.30;;;29.35;100.00;99540.53;3520156;39;100033;-83
2021/07/13 10:38:52;;;;;;;1.30;1.15;;;32.20;49.90;;;28.87;100.00;99542.63;3513267;39;101218;-84
2021/07/13 10:42:07;;;;;;;1.05;1.02;;;32.40;49.50;;;28.69;100.00;99543.38;3533730;39;100824;-85
2021/07/13 10:45:30;;;;;;;1.60;1.13;;;32.50;48.70;;;28.67;100.00;99551.16;3526857;39;102852;-86
2021/07/13 10:48:42;;;;;;;1.85;1.30;;;32.60;48.20;;;28.69;100.00;99546.97;3520716;39;100163;-85
2021/07/13 10:52:04;;;;;;;2.80;1.00;;;32.70;48.10;;;28.88;100.00;99541.53;3524272;39;100949;-81
2021/07/13 10:55:38;;;;;;;2.47;1.45;;;32.70;47.80;;;28.39;100.00;99534.41;3522516;39;100760;-83
2021/07/13 10:59:07;;;;;;;1.83;1.05;;;32.60;46.70;;;28.85;100.00;99529.16;3525492;39;100706;-85
2021/07/13 11:02:42;;;;;;;1.20;1.08;;;32.50;47.10;;;29.60;100.00;99523.63;3529890;39;99972;-85
2021/07/13 11:06:16;;;;;;;1.80;1.25;;;32.50;47.70;;;29.12;100.00;99523.00;3521752;39;100965;-85
2021/07/13 11:09:42;;;;;;;1.70;1.20;;;32.90;47.10;;;29.68;100.00;99522.09;3515329;39;103679;-83
2021/07/13 11:12:54;;;;;;;1.40;1.10;;;33.10;46.90;;;29.64;100.00;99521.91;3525834;39;100442;-83
2021/07/13 11:16:15;;;;;;;1.38;1.27;;;33.50;46.60;;;29.95;100.00;99513.06;3528358;39;100094;-84
2021/07/13 11:19:28;;;;;;;0.98;0.95;;;33.70;46.60;;;28.89;100.00;99519.19;3527405;39;101129;-86
2021/07/13 11:22:44;;;;;;;2.20;1.40;;;33.90;45.40;;;29.60;100.00;99514.53;3521339;39;101223;-84
2021/07/13 11:26:20;;;;;;;1.50;1.25;;;33.70;45.70;;;30.82;100.00;99498.34;3517121;39;102603;-84
2021/07/13 11:29:36;;;;;;;1.30;1.20;;;33.80;46.70;;;29.78;100.00;99488.03;3517453;39;100280;-81
2021/07/13 11:32:49;;;;;;;1.35;1.08;;;34.10;45.90;;;30.07;100.00;99496.03;3520768;39;101130;-84
2021/07/13 11:36:15;;;;;;;0.65;0.65;;;34.20;46.00;;;29.95;100.00;99500.09;3526817;39;101063;-86
2021/07/13 11:39:33;;;;;;;0.63;0.63;;;34.40;44.10;;;29.15;100.00;99505.88;3525354;39;102195;-85
2021/07/13 11:42:45;;;;;;;0.63;0.63;;;34.40;40.40;;;29.74;100.00;99501.59;3531071;39;100265;-85
2021/07/13 11:45:56;;;;;;;0.60;0.60;;;34.30;41.20;;;29.53;100.00;99489.31;3532768;39;100938;-83
2021/07/13 11:49:23;;;;;;;1.38;0.90;;;34.10;40.20;;;30.24;100.00;99485.22;3516983;39;103186;-83
2021/07/13 11:52:37;;;;;;;0.95;0.70;;;34.10;41.60;;;30.13;100.00;99492.88;3523739;39;102712;-81
2021/07/13 11:55:51;;;;;;;0.88;0.73;;;34.30;41.30;;;29.50;100.00;99487.97;3536650;39;99865;-83
2021/07/13 11:59:09;;;;;;;1.05;0.95;;;34.40;40.10;;;29.34;100.00;99491.22;3530750;39;100705;-86
2021/07/13 12:02:22;;;;;;;0.98;0.88;;;34.10;40.20;;;28.80;100.00;99485.19;3519903;39;103264;-82
2021/07/13 12:05:47;;;;;;;0.65;0.60;;;33.60;41.00;;;29.33;100.00;99484.09;3517001;39;102725;-82
2021/07/13 12:09:08;;;;;;;0.75;0.75;;;33.30;42.40;;;29.14;100.00;99476.69;3517594;39;100064;-85
2021/07/13 12:12:24;;;;;;;0.95;0.85;;;33.10;43.00;;;29.25;100.00;99475.41;3525189;39;101152;-82
2021/07/13 12:15:39;;;;;;;1.55;0.95;;;32.90;44.00;;;29.14;100.00;99478.63;3519443;39;101043;-83
2021/07/13 12:18:52;;;;;;;0.70;0.70;;;32.80;44.40;;;29.17;100.00;99484.34;3518574;39;101992;-83
2021/07/13 12:22:09;;;;;;;1.13;0.65;;;32.80;44.60;;;29.64;100.00;99483.31;3521863;39;100126;-82
2021/07/13 12:25:30;;;;;;;6.63;1.00;;;32.50;44.90;;;29.50;100.00;99492.66;3526541;39;103029;-85
2021/07/13 12:29:00;;;;;;;2.58;1.48;;;32.50;44.60;;;29.72;100.00;99483.72;3519614;39;103243;-82
2021/07/13 12:32:26;;;;;;;2.67;1.20;;;32.70;45.50;;;29.81;100.00;99471.66;3526057;39;100683;-82
2021/07/13 12:35:46;;;;;;;2.45;1.35;;;33.00;45.90;;;29.95;100.00;99469.75;3529316;39;100079;-81
2021/07/13 12:38:59;;;;;;;1.90;1.25;;;33.30;45.30;;;31.04;100.00;99468.00;3528843;39;101054;-81
2021/07/13 12:42:21;;;;;;;2.97;1.08;;;33.70;45.00;;;31.20;100.00;99465.72;3512665;39;103317;-84
2021/07/13 12:45:34;;;;;;;1.23;1.05;;;34.00;44.10;;;31.33;100.00;99465.66;3526963;39;100787;-82
2021/07/13 12:48:51;;;;;;;2.92;1.63;;;34.50;44.00;;;30.33;100.00;99459.34;3527433;39;100029;-83
2021/07/13 12:52:03;;;;;;;1.23;1.13;;;34.90;43.10;;;31.39;100.00;99450.59;3532523;39;101072;-84
2021/07/13 12:55:34;;;;;;;1.52;1.42;;;35.20;43.30;;;31.34;100.00;99447.94;3541133;39;100378;-82
2021/07/13 12:58:55;;;;;;;1.70;1.27;;;35.50;43.30;;;31.32;100.00;99444.66;3517053;39;102698;-82
2021/07/13 13:02:06;;;;;;;2.67;1.25;;;35.90;42.60;;;31.85;100.00;99431.97;3528983;39;100142;-81
2021/07/13 13:05:19;;;;;;;1.10;1.00;;;36.00;42.00;;;31.60;100.00;99431.50;3527607;39;101201;-83
2021/07/13 13:08:53;;;;;;;1.95;1.48;;;36.10;42.60;;;30.61;100.00;99426.22;3528349;39;101392;-83
2021/07/13 13:12:07;;;;;;;2.38;1.30;;;36.30;42.30;;;31.33;100.00;99426.94;3521739;39;102824;-83
2021/07/13 13:15:20;;;;;;;3.05;1.23;;;36.10;42.20;;;31.26;100.00;99423.84;3530984;39;100096;-85
2021/07/13 13:18:32;;;;;;;5.00;1.40;;;36.00;41.50;;;30.97;100.00;99418.72;3528126;39;102870;-82
2021/07/13 13:21:45;;;;;;;3.83;1.30;;;35.90;41.60;;;30.86;100.00;99422.84;3529917;39;100990;-86
2021/07/13 13:24:57;;;;;;;1.73;1.42;;;35.80;42.10;;;30.61;100.00;99415.97;3540173;39;100275;-84